createdAt,value
2018-07-25T00:00:01.917Z,28.56
2018-07-25T00:02:31.216Z,28.60
2018-07-25T00:05:01.110Z,28.73
2018-07-25T00:07:30.440Z,28.71
2018-07-25T00:10:00.020Z,28.56
2018-07-25T00:12:29.434Z,28.61
2018-07-25T00:14:58.769Z,28.54
2018-07-25T00:17:28.117Z,28.50
2018-07-25T00:19:57.493Z,28.46
2018-07-25T00:22:27.251Z,28.56
2018-07-25T00:24:56.522Z,28.34
2018-07-25T00:27:25.955Z,28.51
2018-07-25T00:29:55.294Z,28.51
2018-07-25T00:32:24.567Z,28.53
2018-07-25T00:34:53.933Z,28.50
2018-07-25T00:37:23.332Z,28.68
2018-07-25T00:40:02.348Z,28.77
2018-07-25T00:42:32.089Z,28.69
2018-07-25T00:45:01.442Z,28.75
2018-07-25T00:47:30.900Z,28.71
2018-07-25T00:50:00.273Z,28.68
2018-07-25T00:52:29.580Z,28.53
2018-07-25T00:54:58.897Z,28.43
2018-07-25T00:57:28.223Z,28.38
2018-07-25T00:59:57.574Z,28.30
2018-07-25T01:02:26.899Z,28.23
2018-07-25T01:04:56.448Z,28.24
2018-07-25T01:07:26.327Z,28.20
2018-07-25T01:09:55.664Z,28.26
2018-07-25T01:12:25.005Z,28.24
2018-07-25T01:14:54.419Z,28.21
2018-07-25T01:17:24.014Z,28.23
2018-07-25T01:19:53.518Z,28.14
2018-07-25T01:22:22.823Z,27.97
2018-07-25T01:24:52.158Z,28.08
2018-07-25T01:27:22.004Z,28.01
2018-07-25T01:29:51.331Z,27.88
2018-07-25T01:32:20.655Z,27.78
2018-07-25T01:34:49.988Z,28.06
2018-07-25T01:37:19.308Z,28.03
2018-07-25T01:39:48.570Z,28.14
2018-07-25T01:42:18.135Z,28.15
2018-07-25T01:44:47.610Z,28.20
2018-07-25T01:47:16.901Z,28.21
2018-07-25T01:49:46.921Z,28.13
2018-07-25T01:52:16.185Z,28.16
2018-07-25T01:54:45.590Z,28.12
2018-07-25T01:57:14.895Z,28.13
2018-07-25T01:59:44.196Z,28.11
2018-07-25T02:02:13.479Z,28.05
2018-07-25T02:04:43.187Z,28.12
2018-07-25T02:07:12.511Z,28.06
2018-07-25T02:09:41.779Z,28.01
2018-07-25T02:12:11.465Z,27.92
2018-07-25T02:14:40.747Z,27.98
2018-07-25T02:17:10.033Z,28.05
2018-07-25T02:19:39.376Z,28.04
2018-07-25T02:22:08.657Z,28.06
2018-07-25T02:24:38.007Z,28.11
2018-07-25T02:27:07.481Z,27.95
2018-07-25T02:29:36.782Z,27.93
2018-07-25T02:32:06.184Z,28.00
2018-07-25T02:34:36.379Z,27.95
2018-07-25T02:37:05.654Z,28.02
2018-07-25T02:39:34.911Z,27.98
2018-07-25T02:42:04.219Z,27.97
2018-07-25T02:44:33.562Z,27.93
2018-07-25T02:47:02.870Z,27.90
2018-07-25T02:49:32.206Z,27.91
2018-07-25T02:52:01.508Z,27.74
2018-07-25T02:54:30.791Z,27.64
2018-07-25T02:57:00.399Z,27.62
2018-07-25T02:59:29.595Z,27.58
2018-07-25T03:01:58.882Z,27.46
2018-07-25T03:04:28.158Z,27.39
2018-07-25T03:06:57.514Z,27.39
2018-07-25T03:09:26.819Z,27.39
2018-07-25T03:11:56.134Z,27.31
2018-07-25T03:14:25.417Z,27.33
2018-07-25T03:16:54.700Z,27.24
2018-07-25T03:19:24.293Z,27.11
2018-07-25T03:21:53.604Z,26.94
2018-07-25T03:24:22.906Z,26.82
2018-07-25T03:26:52.199Z,26.71
2018-07-25T03:29:21.416Z,26.75
2018-07-25T03:31:50.696Z,26.79
2018-07-25T03:34:20.035Z,26.93
2018-07-25T03:36:49.341Z,26.98
2018-07-25T03:39:18.667Z,26.95
2018-07-25T03:41:48.186Z,26.93
2018-07-25T03:44:17.483Z,26.95
2018-07-25T03:46:46.800Z,26.97
2018-07-25T03:49:16.135Z,26.95
2018-07-25T03:51:45.591Z,26.95
2018-07-25T03:54:14.859Z,26.93
2018-07-25T03:56:44.185Z,26.79
2018-07-25T03:59:13.466Z,26.73
2018-07-25T04:01:42.742Z,26.73
2018-07-25T04:04:12.140Z,26.63
2018-07-25T04:06:41.434Z,26.61
2018-07-25T04:09:10.741Z,26.66
2018-07-25T04:11:40.177Z,26.80
2018-07-25T04:14:09.454Z,26.77
2018-07-25T04:16:38.739Z,26.81
2018-07-25T04:19:08.110Z,26.91
2018-07-25T04:21:37.464Z,26.95
2018-07-25T04:24:06.532Z,27.00
2018-07-25T04:26:36.375Z,27.14
2018-07-25T04:29:05.663Z,27.23
2018-07-25T04:31:34.954Z,27.30
2018-07-25T04:34:04.268Z,27.29
2018-07-25T04:36:33.733Z,27.36
2018-07-25T04:39:03.039Z,27.29
2018-07-25T04:41:32.398Z,27.31
2018-07-25T04:44:01.701Z,27.27
2018-07-25T04:46:31.321Z,27.27
2018-07-25T04:49:01.342Z,27.30
2018-07-25T04:51:30.607Z,27.10
2018-07-25T04:53:59.914Z,27.27
2018-07-25T04:56:29.192Z,27.43
2018-07-25T04:58:59.000Z,27.63
2018-07-25T05:01:28.254Z,27.67
2018-07-25T05:03:57.597Z,27.62
2018-07-25T05:06:26.959Z,27.66
2018-07-25T05:08:56.340Z,27.63
2018-07-25T05:11:25.805Z,27.61
2018-07-25T05:13:55.159Z,27.59
2018-07-25T05:16:24.429Z,27.65
2018-07-25T05:18:53.710Z,27.70
2018-07-25T05:21:23.154Z,27.76
2018-07-25T05:23:52.203Z,27.93
2018-07-25T05:26:21.550Z,27.92
2018-07-25T05:28:50.852Z,28.14
2018-07-25T05:31:20.163Z,28.32
2018-07-25T05:33:49.757Z,28.41
2018-07-25T05:36:19.100Z,28.48
2018-07-25T05:38:48.434Z,28.68
2018-07-25T05:41:17.837Z,28.69
2018-07-25T05:43:47.334Z,28.80
2018-07-25T05:46:16.600Z,28.87
2018-07-25T05:48:45.943Z,29.01
2018-07-25T05:51:15.234Z,29.11
2018-07-25T05:53:44.611Z,29.17
2018-07-25T05:56:14.191Z,29.28
2018-07-25T05:58:43.469Z,29.34
2018-07-25T06:01:12.830Z,29.39
2018-07-25T06:03:42.157Z,29.44
2018-07-25T06:06:11.453Z,29.54
2018-07-25T06:08:40.846Z,29.69
2018-07-25T06:11:10.162Z,29.85
2018-07-25T06:13:39.453Z,29.82
2018-07-25T06:16:08.715Z,30.09
2018-07-25T06:18:38.230Z,30.31
2018-07-25T06:21:07.494Z,30.40
2018-07-25T06:23:36.861Z,30.59
2018-07-25T06:26:06.584Z,30.70
2018-07-25T06:28:35.934Z,30.72
2018-07-25T06:31:04.996Z,30.90
2018-07-25T06:33:34.378Z,31.00
2018-07-25T06:36:03.628Z,31.29
2018-07-25T06:38:32.924Z,31.54
2018-07-25T06:41:02.733Z,31.62
2018-07-25T06:43:32.030Z,31.59
2018-07-25T06:46:01.334Z,31.92
2018-07-25T06:48:30.685Z,32.02
2018-07-25T06:51:00.049Z,31.85
2018-07-25T06:53:29.334Z,31.93
2018-07-25T06:55:58.698Z,32.29
2018-07-25T06:58:28.034Z,32.51
2018-07-25T07:00:57.319Z,32.67
2018-07-25T07:03:26.740Z,32.81
2018-07-25T07:05:56.253Z,32.64
2018-07-25T07:08:25.643Z,32.67
2018-07-25T07:10:55.004Z,32.86
2018-07-25T07:13:24.317Z,32.96
2018-07-25T07:15:53.630Z,33.13
2018-07-25T07:18:22.987Z,33.02
2018-07-25T07:20:52.479Z,32.90
2018-07-25T07:23:21.592Z,32.96
2018-07-25T07:25:51.450Z,33.23
2018-07-25T07:28:20.742Z,33.26
2018-07-25T07:30:50.065Z,33.40
2018-07-25T07:33:19.376Z,33.17
2018-07-25T07:35:48.663Z,33.06
2018-07-25T07:38:18.031Z,33.34
2018-07-25T07:40:47.403Z,33.39
2018-07-25T07:43:16.742Z,33.82
2018-07-25T07:45:46.043Z,33.65
2018-07-25T07:48:15.778Z,33.51
2018-07-25T07:50:45.140Z,33.79
2018-07-25T07:53:14.413Z,34.09
2018-07-25T07:55:43.491Z,34.08
2018-07-25T07:58:12.778Z,33.99
2018-07-25T08:00:42.040Z,34.11
2018-07-25T08:03:11.390Z,34.01
2018-07-25T08:05:40.694Z,34.05
2018-07-25T08:08:10.010Z,34.30
2018-07-25T08:10:39.938Z,34.43
2018-07-25T08:13:09.145Z,34.57
2018-07-25T08:15:38.461Z,34.70
2018-07-25T08:18:07.858Z,34.70
2018-07-25T08:20:37.195Z,34.78
2018-07-25T08:23:06.733Z,34.82
2018-07-25T08:25:36.257Z,34.65
2018-07-25T08:28:05.502Z,34.96
2018-07-25T08:30:34.801Z,34.79
2018-07-25T08:33:04.424Z,34.73
2018-07-25T08:35:33.808Z,35.16
2018-07-25T08:38:03.090Z,35.07
2018-07-25T08:40:32.460Z,35.12
2018-07-25T08:43:01.797Z,35.43
2018-07-25T08:45:31.108Z,35.56
2018-07-25T08:48:00.537Z,35.70
2018-07-25T08:50:29.925Z,36.09
2018-07-25T08:52:59.226Z,36.50
2018-07-25T08:55:28.910Z,36.85
2018-07-25T08:57:57.937Z,37.13
2018-07-25T09:00:27.251Z,37.31
2018-07-25T09:02:56.647Z,37.41
2018-07-25T09:05:26.023Z,37.62
2018-07-25T09:07:55.354Z,37.39
2018-07-25T09:10:24.698Z,37.40
2018-07-25T09:12:54.414Z,36.92
2018-07-25T09:15:23.480Z,36.94
2018-07-25T09:17:53.243Z,36.95
2018-07-25T09:20:22.553Z,36.97
2018-07-25T09:22:52.898Z,37.26
2018-07-25T09:25:22.268Z,37.39
2018-07-25T09:27:51.841Z,37.02
2018-07-25T09:30:21.996Z,37.22
2018-07-25T09:32:52.110Z,37.62
2018-07-25T09:35:21.496Z,37.55
2018-07-25T09:37:50.842Z,37.81
2018-07-25T09:40:20.243Z,37.99
2018-07-25T09:42:49.581Z,37.61
2018-07-25T09:45:18.927Z,38.05
2018-07-25T09:47:48.256Z,37.98
2018-07-25T09:50:17.576Z,38.09
2018-07-25T09:52:46.864Z,38.43
2018-07-25T09:55:16.218Z,38.33
2018-07-25T09:57:45.558Z,38.19
2018-07-25T10:00:19.747Z,38.02
2018-07-25T10:02:49.110Z,37.91
2018-07-25T10:05:18.423Z,38.33
2018-07-25T10:07:47.811Z,38.57
2018-07-25T10:10:17.392Z,38.85
2018-07-25T10:12:47.007Z,38.90
2018-07-25T10:15:16.471Z,39.10
2018-07-25T10:17:45.721Z,38.87
2018-07-25T10:20:15.039Z,38.97
2018-07-25T10:22:44.502Z,39.02
2018-07-25T10:25:13.918Z,39.16
2018-07-25T10:27:43.179Z,38.94
2018-07-25T10:30:12.503Z,39.29
2018-07-25T10:32:41.865Z,39.46
2018-07-25T10:35:10.981Z,39.03
2018-07-25T10:37:40.305Z,38.62
2018-07-25T10:40:09.678Z,38.34
2018-07-25T10:42:39.016Z,38.75
2018-07-25T10:45:09.790Z,39.12
2018-07-25T10:47:39.735Z,39.21
2018-07-25T10:50:09.738Z,39.40
2018-07-25T10:52:39.093Z,39.32
2018-07-25T10:55:08.458Z,39.70
2018-07-25T10:57:37.805Z,39.56
2018-07-25T11:00:08.704Z,39.78
2018-07-25T11:02:38.247Z,39.54
2018-07-25T11:05:07.980Z,39.49
2018-07-25T11:07:37.821Z,39.48
2018-07-25T11:10:07.683Z,39.78
2018-07-25T11:12:37.493Z,40.21
2018-07-25T11:15:06.880Z,39.75
2018-07-25T11:17:36.502Z,39.55
2018-07-25T11:20:06.186Z,39.26
2018-07-25T11:22:35.647Z,39.29
2018-07-25T11:25:05.028Z,39.25
2018-07-25T11:27:34.672Z,39.48
2018-07-25T11:30:04.305Z,39.34
2018-07-25T11:32:33.635Z,39.41
2018-07-25T11:35:02.974Z,39.58
2018-07-25T11:37:32.314Z,40.01
2018-07-25T11:40:01.372Z,40.23
2018-07-25T11:42:30.678Z,40.21
2018-07-25T11:44:59.962Z,40.20
2018-07-25T11:47:29.273Z,40.44
2018-07-25T11:49:58.599Z,40.79
2018-07-25T11:52:28.524Z,41.01
2018-07-25T11:54:57.570Z,40.86
2018-07-25T11:57:26.931Z,40.65
2018-07-25T11:59:57.212Z,40.66
2018-07-25T12:02:26.557Z,40.92
2018-07-25T12:04:57.655Z,41.03
2018-07-25T12:07:27.006Z,40.90
2018-07-25T12:09:56.307Z,40.88
2018-07-25T12:12:25.761Z,40.93
2018-07-25T12:14:55.709Z,40.63
2018-07-25T12:17:25.032Z,40.97
2018-07-25T12:19:54.381Z,40.98
2018-07-25T12:22:23.751Z,40.55
2018-07-25T12:24:53.146Z,40.29
2018-07-25T12:27:22.507Z,39.80
2018-07-25T12:29:51.807Z,39.44
2018-07-25T12:32:21.197Z,39.94
2018-07-25T12:34:50.779Z,40.52
2018-07-25T12:37:20.063Z,40.79
2018-07-25T12:39:50.051Z,40.59
2018-07-25T12:42:19.354Z,40.29
2018-07-25T12:44:48.431Z,40.34
2018-07-25T12:47:17.773Z,40.44
2018-07-25T12:49:47.325Z,39.81
2018-07-25T12:52:16.615Z,40.13
2018-07-25T12:54:46.171Z,40.63
2018-07-25T12:57:16.070Z,41.00
2018-07-25T12:59:45.390Z,41.09
2018-07-25T13:02:15.077Z,41.09
2018-07-25T13:04:44.414Z,40.44
2018-07-25T13:07:13.719Z,40.00
2018-07-25T13:09:43.069Z,40.48
2018-07-25T13:12:12.426Z,40.73
2018-07-25T13:14:42.739Z,40.90
2018-07-25T13:17:12.164Z,40.85
2018-07-25T13:19:42.058Z,41.20
2018-07-25T13:22:12.266Z,40.97
2018-07-25T13:24:41.630Z,40.89
2018-07-25T13:27:11.046Z,40.37
2018-07-25T13:29:41.073Z,40.19
2018-07-25T13:32:10.523Z,40.02
2018-07-25T13:34:39.917Z,39.93
2018-07-25T13:37:09.466Z,39.79
2018-07-25T13:39:38.911Z,39.99
2018-07-25T13:42:08.374Z,40.04
2018-07-25T13:44:37.668Z,40.01
2018-07-25T13:47:07.092Z,40.15
2018-07-25T13:49:36.445Z,40.17
2018-07-25T13:52:05.826Z,39.95
2018-07-25T13:54:35.147Z,39.61
2018-07-25T13:57:04.501Z,39.44
2018-07-25T13:59:34.517Z,39.50
2018-07-25T14:02:03.855Z,39.47
2018-07-25T14:04:34.827Z,39.20
2018-07-25T14:07:04.147Z,39.04
2018-07-25T14:09:35.918Z,39.57
2018-07-25T14:12:05.282Z,39.25
2018-07-25T14:14:34.601Z,39.51
2018-07-25T14:17:04.396Z,39.67
2018-07-25T14:19:33.760Z,39.66
2018-07-25T14:22:03.225Z,39.16
2018-07-25T14:24:33.144Z,39.04
2018-07-25T14:27:02.844Z,38.83
2018-07-25T14:29:32.151Z,38.98
2018-07-25T14:32:01.594Z,39.15
2018-07-25T14:34:30.991Z,39.47
2018-07-25T14:37:00.414Z,39.57
2018-07-25T14:39:29.808Z,39.41
2018-07-25T14:41:59.244Z,39.33
2018-07-25T14:44:28.788Z,39.52
2018-07-25T14:46:58.583Z,39.67
2018-07-25T14:49:28.401Z,39.72
2018-07-25T14:51:58.269Z,39.23
2018-07-25T14:54:27.755Z,39.39
2018-07-25T14:56:56.959Z,39.25
2018-07-25T14:59:27.497Z,39.15
2018-07-25T15:01:57.079Z,39.12
2018-07-25T15:04:27.955Z,39.29
2018-07-25T15:06:57.291Z,39.40
2018-07-25T15:09:27.713Z,39.73
2018-07-25T15:11:57.042Z,39.75
2018-07-25T15:14:26.347Z,39.74
2018-07-25T15:16:55.677Z,39.76
2018-07-25T15:19:25.033Z,39.88
2018-07-25T15:21:54.356Z,39.92
2018-07-25T15:24:23.687Z,39.76
2018-07-25T15:26:53.027Z,39.31
2018-07-25T15:29:22.508Z,39.40
2018-07-25T15:31:52.414Z,39.24
2018-07-25T15:34:21.710Z,39.17
2018-07-25T15:36:52.637Z,39.21
2018-07-25T15:39:24.645Z,38.87
2018-07-25T15:41:55.026Z,38.48
2018-07-25T15:44:25.703Z,38.09
2018-07-25T15:46:55.032Z,38.28
2018-07-25T15:49:24.330Z,38.18
2018-07-25T15:51:54.146Z,38.12
2018-07-25T15:54:23.465Z,38.19
2018-07-25T15:56:52.869Z,38.32
2018-07-25T15:59:22.215Z,38.32
2018-07-25T16:01:52.521Z,38.13
2018-07-25T16:04:21.880Z,37.77
2018-07-25T16:06:52.331Z,36.48
2018-07-25T16:09:21.737Z,35.73
2018-07-25T16:11:51.092Z,35.31
2018-07-25T16:14:21.622Z,35.12
2018-07-25T16:16:50.951Z,35.22
2018-07-25T16:19:20.250Z,34.81
2018-07-25T16:21:49.623Z,34.60
2018-07-25T16:24:18.957Z,34.74
2018-07-25T16:26:48.267Z,34.30
2018-07-25T16:29:17.702Z,34.19
2018-07-25T16:31:47.063Z,34.14
2018-07-25T16:34:16.463Z,34.24
2018-07-25T16:36:46.115Z,34.01
2018-07-25T16:39:17.414Z,34.16
2018-07-25T16:41:46.831Z,34.29
2018-07-25T16:44:16.225Z,34.12
2018-07-25T16:46:46.238Z,34.23
2018-07-25T16:49:16.251Z,34.06
2018-07-25T16:51:45.559Z,34.16
2018-07-25T16:54:14.972Z,34.04
2018-07-25T16:56:44.307Z,34.26
2018-07-25T16:59:13.949Z,34.19
2018-07-25T17:01:43.240Z,34.01
2018-07-25T17:04:12.600Z,33.98
2018-07-25T17:06:41.983Z,33.96
2018-07-25T17:09:12.554Z,33.77
2018-07-25T17:11:42.599Z,33.77
2018-07-25T17:14:11.948Z,33.61
2018-07-25T17:16:41.210Z,33.61
2018-07-25T17:19:12.363Z,33.57
2018-07-25T17:21:41.654Z,33.46
2018-07-25T17:24:11.016Z,33.36
2018-07-25T17:26:40.391Z,33.14
2018-07-25T17:29:10.421Z,33.36
2018-07-25T17:31:41.393Z,33.12
2018-07-25T17:34:10.761Z,33.10
2018-07-25T17:36:40.101Z,33.12
2018-07-25T17:39:11.505Z,33.07
2018-07-25T17:41:42.529Z,33.04
2018-07-25T17:44:11.922Z,32.96
2018-07-25T17:46:41.336Z,32.79
2018-07-25T17:49:11.104Z,32.71
2018-07-25T17:51:40.467Z,32.83
2018-07-25T17:54:09.846Z,32.97
2018-07-25T17:56:39.234Z,32.85
2018-07-25T17:59:08.706Z,32.89
2018-07-25T18:01:38.406Z,32.86
2018-07-25T18:04:07.792Z,32.73
2018-07-25T18:06:37.137Z,32.71
2018-07-25T18:09:09.450Z,32.62
2018-07-25T18:11:38.798Z,32.63
2018-07-25T18:14:16.230Z,32.51
2018-07-25T18:16:46.258Z,32.31
2018-07-25T18:19:16.287Z,32.36
2018-07-25T18:21:45.998Z,32.12
2018-07-25T18:24:15.288Z,32.27
2018-07-25T18:26:44.700Z,32.35
2018-07-25T18:29:14.124Z,32.35
2018-07-25T18:31:43.400Z,32.18
2018-07-25T18:34:13.706Z,32.25
2018-07-25T18:36:43.156Z,32.39
2018-07-25T18:39:13.126Z,32.46
2018-07-25T18:41:42.541Z,32.38
2018-07-25T18:44:13.044Z,32.33
2018-07-25T18:46:44.197Z,32.31
2018-07-25T18:49:14.204Z,32.33
2018-07-25T18:51:43.585Z,32.20
2018-07-25T18:54:12.890Z,32.06
2018-07-25T18:56:42.280Z,32.01
2018-07-25T18:59:12.540Z,32.01
2018-07-25T19:01:41.922Z,31.93
2018-07-25T19:04:11.482Z,31.87
2018-07-25T19:06:40.892Z,31.97
2018-07-25T19:09:14.269Z,31.86
2018-07-25T19:11:43.721Z,31.82
2018-07-25T19:14:18.768Z,31.85
2018-07-25T19:16:48.181Z,31.94
2018-07-25T19:19:17.465Z,31.88
2018-07-25T19:21:46.914Z,31.97
2018-07-25T19:24:16.307Z,31.92
2018-07-25T19:26:45.677Z,31.85
2018-07-25T19:29:15.010Z,31.84
2018-07-25T19:31:44.302Z,31.72
2018-07-25T19:34:13.591Z,31.72
2018-07-25T19:36:42.961Z,31.66
2018-07-25T19:39:12.245Z,31.58
2018-07-25T19:41:41.666Z,31.55
2018-07-25T19:44:11.086Z,31.52
2018-07-25T19:46:40.397Z,31.38
2018-07-25T19:49:09.710Z,31.37
2018-07-25T19:51:39.165Z,31.46
2018-07-25T19:54:08.476Z,31.16
2018-07-25T19:56:38.085Z,31.35
2018-07-25T19:59:07.495Z,31.24
2018-07-25T20:01:37.023Z,31.12
2018-07-25T20:04:06.488Z,31.09
2018-07-25T20:06:36.381Z,31.01
2018-07-25T20:09:08.249Z,30.91
2018-07-25T20:11:37.767Z,31.04
2018-07-25T20:14:12.300Z,31.04
2018-07-25T20:16:42.593Z,30.92
2018-07-25T20:19:11.934Z,30.93
2018-07-25T20:21:41.262Z,30.84
2018-07-25T20:24:10.775Z,30.91
2018-07-25T20:26:40.133Z,30.83
2018-07-25T20:29:09.444Z,30.77
2018-07-25T20:31:38.785Z,30.74
2018-07-25T20:34:08.077Z,30.67
2018-07-25T20:36:38.920Z,30.79
2018-07-25T20:39:11.735Z,30.72
2018-07-25T20:41:41.927Z,30.70
2018-07-25T20:44:11.926Z,30.68
2018-07-25T20:46:42.499Z,30.78
2018-07-25T20:49:11.898Z,30.71
2018-07-25T20:51:41.181Z,30.46
2018-07-25T20:54:10.445Z,30.51
2018-07-25T20:56:39.842Z,30.45
2018-07-25T20:59:09.198Z,30.34
2018-07-25T21:01:38.415Z,30.29
2018-07-25T21:04:07.822Z,30.23
2018-07-25T21:06:37.168Z,30.26
2018-07-25T21:09:09.166Z,30.19
2018-07-25T21:11:39.741Z,30.17
2018-07-25T21:14:09.062Z,30.17
2018-07-25T21:16:38.492Z,30.23
2018-07-25T21:19:07.816Z,30.24
2018-07-25T21:21:38.196Z,30.23
2018-07-25T21:24:10.487Z,30.18
2018-07-25T21:26:39.815Z,30.04
2018-07-25T21:29:09.121Z,29.99
2018-07-25T21:31:38.462Z,30.11
2018-07-25T21:34:07.803Z,29.89
2018-07-25T21:36:37.152Z,30.00
2018-07-25T21:39:11.031Z,29.94
2018-07-25T21:41:40.373Z,30.02
2018-07-25T21:44:09.726Z,30.01
2018-07-25T21:46:39.108Z,29.90
2018-07-25T21:49:08.453Z,29.88
2018-07-25T21:51:37.711Z,29.78
2018-07-25T21:54:07.029Z,29.76
2018-07-25T21:56:36.352Z,29.84
2018-07-25T21:59:05.732Z,29.83
2018-07-25T22:01:35.095Z,29.73
2018-07-25T22:04:04.926Z,29.89
2018-07-25T22:06:34.210Z,29.87
2018-07-25T22:09:04.661Z,29.76
2018-07-25T22:11:33.913Z,29.71
2018-07-25T22:14:03.242Z,29.70
2018-07-25T22:16:33.532Z,29.69
2018-07-25T22:19:02.857Z,29.80
2018-07-25T22:21:32.215Z,29.73
2018-07-25T22:24:01.651Z,29.74
2018-07-25T22:26:30.896Z,29.78
2018-07-25T22:29:00.136Z,29.73
2018-07-25T22:31:29.427Z,29.66
2018-07-25T22:33:58.670Z,29.63
2018-07-25T22:36:28.966Z,29.75
2018-07-25T22:38:58.781Z,29.67
2018-07-25T22:41:28.105Z,29.74
2018-07-25T22:43:57.396Z,29.72
2018-07-25T22:46:26.889Z,29.76
2018-07-25T22:48:56.249Z,29.77
2018-07-25T22:51:25.577Z,29.75
2018-07-25T22:53:54.871Z,29.77
2018-07-25T22:56:24.175Z,29.80
2018-07-25T22:58:53.458Z,29.81
2018-07-25T23:01:22.740Z,29.77
2018-07-25T23:03:52.043Z,29.75
2018-07-25T23:06:21.315Z,29.64
2018-07-25T23:08:50.798Z,29.66
2018-07-25T23:11:20.069Z,29.62
2018-07-25T23:13:49.337Z,29.53
2018-07-25T23:16:18.622Z,29.51
2018-07-25T23:18:48.041Z,29.33
2018-07-25T23:21:17.647Z,29.33
2018-07-25T23:23:46.960Z,29.33
2018-07-25T23:26:16.260Z,29.30
2018-07-25T23:28:45.550Z,29.25
2018-07-25T23:31:15.489Z,29.32
2018-07-25T23:33:44.769Z,29.24
2018-07-25T23:36:14.050Z,29.22
2018-07-25T23:38:43.364Z,29.11
2018-07-25T23:41:12.642Z,29.13
2018-07-25T23:43:41.947Z,29.05
2018-07-25T23:46:11.325Z,29.06
2018-07-25T23:48:40.621Z,28.98
2018-07-25T23:51:10.138Z,28.94
2018-07-25T23:53:39.568Z,28.92
2018-07-25T23:56:08.898Z,28.94
2018-07-25T23:58:38.193Z,28.62
